createdAt,value
2023-04-27T00:01:20.225Z,98793.59
2023-04-27T00:03:47.890Z,98788.66
2023-04-27T00:06:15.541Z,98788.00
2023-04-27T00:08:43.105Z,98790.56
2023-04-27T00:11:10.823Z,98788.66
2023-04-27T00:13:38.318Z,98788.66
2023-04-27T00:16:06.530Z,98791.38
2023-04-27T00:18:34.372Z,98782.81
2023-04-27T00:21:03.431Z,98761.19
2023-04-27T00:23:31.186Z,98754.41
2023-04-27T00:25:58.651Z,98755.88
2023-04-27T00:28:26.213Z,98754.78
2023-04-27T00:30:54.806Z,98760.91
2023-04-27T00:33:22.238Z,98756.94
2023-04-27T00:35:49.671Z,98758.16
2023-04-27T00:38:17.159Z,98760.88
2023-04-27T00:40:44.660Z,98745.22
2023-04-27T00:43:12.896Z,98744.84
2023-04-27T00:45:43.588Z,98761.03
2023-04-27T00:48:12.141Z,98748.91
2023-04-27T00:50:41.519Z,98751.91
2023-04-27T00:53:09.083Z,98757.09
2023-04-27T00:55:36.598Z,98752.16
2023-04-27T00:58:04.277Z,98757.34
2023-04-27T01:00:32.463Z,98767.00
2023-04-27T01:03:02.766Z,98764.66
2023-04-27T01:05:32.558Z,98759.78
2023-04-27T01:08:00.461Z,98767.38
2023-04-27T01:10:28.554Z,98769.28
2023-04-27T01:12:56.274Z,98774.69
2023-04-27T01:15:23.850Z,98780.25
2023-04-27T01:18:01.424Z,98774.50
2023-04-27T01:20:32.676Z,98782.16
2023-04-27T01:23:00.461Z,98782.41
2023-04-27T01:25:28.137Z,98780.78
2023-04-27T01:27:55.704Z,98787.84
2023-04-27T01:30:23.410Z,98788.75
2023-04-27T01:32:51.154Z,98788.75
2023-04-27T01:35:20.380Z,98784.31
2023-04-27T01:37:48.044Z,98774.34
2023-04-27T01:40:18.453Z,98784.00
2023-04-27T01:42:46.177Z,98776.38
2023-04-27T01:45:13.764Z,98774.06
2023-04-27T01:47:41.650Z,98783.81
2023-04-27T01:50:09.620Z,98784.75
2023-04-27T01:52:37.172Z,98776.22
2023-04-27T01:55:05.283Z,98781.50
2023-04-27T01:57:32.935Z,98781.63
2023-04-27T02:00:01.548Z,98780.69
2023-04-27T02:02:48.109Z,98779.59
2023-04-27T02:05:15.863Z,98775.41
2023-04-27T02:07:43.388Z,98775.63
2023-04-27T02:10:17.102Z,98779.44
2023-04-27T02:12:45.848Z,98776.00
2023-04-27T02:15:13.484Z,98778.59
2023-04-27T02:17:41.188Z,98779.16
2023-04-27T02:20:10.855Z,98775.09
2023-04-27T02:22:43.770Z,98786.91
2023-04-27T02:25:13.122Z,98784.72
2023-04-27T02:27:41.508Z,98778.72
2023-04-27T02:30:11.848Z,98782.25
2023-04-27T02:32:40.118Z,98781.59
2023-04-27T02:35:09.014Z,98783.59
2023-04-27T02:37:36.939Z,98782.09
2023-04-27T02:40:07.875Z,98783.72
2023-04-27T02:42:35.735Z,98787.94
2023-04-27T02:45:05.568Z,98794.34
2023-04-27T02:47:33.218Z,98795.63
2023-04-27T02:50:01.508Z,98788.81
2023-04-27T02:52:29.084Z,98789.78
2023-04-27T02:54:57.010Z,98796.72
2023-04-27T02:57:24.500Z,98799.06
2023-04-27T02:59:52.007Z,98807.13
2023-04-27T03:02:19.606Z,98803.44
2023-04-27T03:04:47.359Z,98803.50
2023-04-27T03:07:14.865Z,98801.09
2023-04-27T03:09:42.332Z,98799.09
2023-04-27T03:12:09.872Z,98813.94
2023-04-27T03:14:37.329Z,98803.66
2023-04-27T03:17:04.842Z,98800.00
2023-04-27T03:19:32.362Z,98804.63
2023-04-27T03:21:59.990Z,98809.66
2023-04-27T03:24:27.932Z,98816.03
2023-04-27T03:26:55.445Z,98814.66
2023-04-27T03:29:22.947Z,98822.56
2023-04-27T03:31:50.436Z,98824.88
2023-04-27T03:34:17.973Z,98830.63
2023-04-27T03:36:45.578Z,98831.84
2023-04-27T03:39:13.209Z,98830.06
2023-04-27T03:41:41.058Z,98842.56
2023-04-27T03:44:08.884Z,98844.94
2023-04-27T03:46:36.597Z,98843.03
2023-04-27T03:49:04.555Z,98848.31
2023-04-27T03:51:33.400Z,98845.75
2023-04-27T03:54:01.411Z,98848.72
2023-04-27T03:56:29.011Z,98852.78
2023-04-27T03:58:56.993Z,98855.13
2023-04-27T04:01:33.998Z,98852.84
2023-04-27T04:04:01.676Z,98860.44
2023-04-27T04:06:29.624Z,98863.47
2023-04-27T04:08:57.336Z,98852.88
2023-04-27T04:11:27.412Z,98858.59
2023-04-27T04:13:58.035Z,98848.69
2023-04-27T04:16:25.822Z,98858.09
2023-04-27T04:18:54.083Z,98859.69
2023-04-27T04:21:22.242Z,98849.75
2023-04-27T04:23:49.941Z,98859.44
2023-04-27T04:26:20.562Z,98862.06
2023-04-27T04:28:49.120Z,98852.94
2023-04-27T04:31:18.334Z,98851.94
2023-04-27T04:33:45.983Z,98852.34
2023-04-27T04:36:15.984Z,98856.25
2023-04-27T04:38:43.526Z,98854.00
2023-04-27T04:41:11.003Z,98852.41
2023-04-27T04:43:38.561Z,98857.88
2023-04-27T04:46:07.572Z,98862.13
2023-04-27T04:48:35.683Z,98865.72
2023-04-27T04:51:07.075Z,98870.91
2023-04-27T04:53:35.691Z,98869.06
2023-04-27T04:56:13.832Z,98870.75
2023-04-27T04:58:41.352Z,98877.34
2023-04-27T05:01:08.883Z,98875.13
2023-04-27T05:03:36.704Z,98868.00
2023-04-27T05:06:04.450Z,98862.34
2023-04-27T05:08:31.958Z,98863.25
2023-04-27T05:10:59.596Z,98864.50
2023-04-27T05:13:27.450Z,98842.88
2023-04-27T05:15:55.272Z,98870.63
2023-04-27T05:18:22.870Z,98869.06
2023-04-27T05:20:50.417Z,98878.38
2023-04-27T05:23:17.993Z,98871.34
2023-04-27T05:25:45.464Z,98871.53
2023-04-27T05:28:13.025Z,98874.31
2023-04-27T05:30:40.649Z,98876.56
2023-04-27T05:33:08.484Z,98888.31
2023-04-27T05:35:36.189Z,98906.00
2023-04-27T05:38:03.949Z,98887.81
2023-04-27T05:40:31.623Z,98877.63
2023-04-27T05:42:59.981Z,98869.44
2023-04-27T05:45:27.488Z,98877.56
2023-04-27T05:47:54.977Z,98876.66
2023-04-27T05:50:22.729Z,98875.53
2023-04-27T05:52:50.182Z,98884.97
2023-04-27T05:55:17.644Z,98878.19
2023-04-27T05:57:47.658Z,98904.78
2023-04-27T06:00:17.884Z,98896.13
2023-04-27T06:02:45.584Z,98887.34
2023-04-27T06:05:13.241Z,98881.97
2023-04-27T06:07:43.700Z,98887.06
2023-04-27T06:10:11.918Z,98870.06
2023-04-27T06:12:39.509Z,98878.63
2023-04-27T06:15:10.696Z,98876.59
2023-04-27T06:17:39.309Z,98876.69
2023-04-27T06:20:07.993Z,98872.72
2023-04-27T06:22:39.685Z,98879.53
2023-04-27T06:25:08.150Z,98884.72
2023-04-27T06:27:35.713Z,98888.75
2023-04-27T06:30:03.604Z,98885.66
2023-04-27T06:32:31.148Z,98899.97
2023-04-27T06:34:58.702Z,98894.63
2023-04-27T06:37:26.275Z,98888.22
2023-04-27T06:39:53.827Z,98889.81
2023-04-27T06:42:21.343Z,98892.31
2023-04-27T06:44:49.011Z,98899.53
2023-04-27T06:47:16.517Z,98892.78
2023-04-27T06:49:44.057Z,98894.50
2023-04-27T06:52:11.623Z,98879.34
2023-04-27T06:54:39.172Z,98873.38
2023-04-27T06:57:07.448Z,98884.06
2023-04-27T06:59:35.035Z,98877.00
2023-04-27T07:02:03.246Z,98886.50
2023-04-27T07:04:30.996Z,98875.88
2023-04-27T07:06:58.563Z,98871.50
2023-04-27T07:09:27.739Z,98878.41
2023-04-27T07:11:55.896Z,98883.25
2023-04-27T07:14:23.421Z,98884.66
2023-04-27T07:16:51.383Z,98890.91
2023-04-27T07:19:18.915Z,98887.69
2023-04-27T07:21:46.434Z,98872.16
2023-04-27T07:24:13.874Z,98879.09
2023-04-27T07:26:41.508Z,98879.66
2023-04-27T07:29:25.627Z,98872.16
2023-04-27T07:31:55.915Z,98880.22
2023-04-27T07:34:24.181Z,98881.28
2023-04-27T07:36:54.510Z,98881.22
2023-04-27T07:39:22.464Z,98891.91
2023-04-27T07:41:50.299Z,98897.69
2023-04-27T07:44:19.080Z,98875.47
2023-04-27T07:46:48.984Z,98871.94
2023-04-27T07:49:16.733Z,98872.34
2023-04-27T07:51:44.272Z,98867.38
2023-04-27T07:54:12.210Z,98872.06
2023-04-27T07:56:43.054Z,98881.22
2023-04-27T07:59:10.748Z,98884.69
2023-04-27T08:01:38.296Z,98889.53
2023-04-27T08:04:06.086Z,98898.34
2023-04-27T08:06:34.462Z,98884.97
2023-04-27T08:09:04.185Z,98907.59
2023-04-27T08:11:32.306Z,98910.91
2023-04-27T08:13:59.878Z,98905.69
2023-04-27T08:16:28.150Z,98899.31
2023-04-27T08:18:55.780Z,98904.91
2023-04-27T08:21:23.504Z,98911.59
2023-04-27T08:23:51.122Z,98902.41
2023-04-27T08:26:18.586Z,98922.44
2023-04-27T08:28:46.115Z,98919.31
2023-04-27T08:31:13.732Z,98919.69
2023-04-27T08:33:41.676Z,98903.00
2023-04-27T08:36:09.629Z,98904.34
2023-04-27T08:38:36.981Z,98900.28
2023-04-27T08:41:18.071Z,98895.59
2023-04-27T08:43:53.459Z,98902.59
2023-04-27T08:46:27.200Z,98914.53
2023-04-27T08:48:56.623Z,98921.22
2023-04-27T08:51:27.481Z,98916.31
2023-04-27T08:53:57.975Z,98917.56
2023-04-27T08:56:28.404Z,98917.38
2023-04-27T08:58:58.050Z,98916.06
2023-04-27T09:01:27.506Z,98926.38
2023-04-27T09:04:06.238Z,98930.03
2023-04-27T09:06:36.380Z,98932.44
2023-04-27T09:09:04.766Z,98934.34
2023-04-27T09:11:35.606Z,98917.88
2023-04-27T09:14:17.150Z,98923.56
2023-04-27T09:16:45.074Z,98923.00
2023-04-27T09:19:12.925Z,98921.63
2023-04-27T09:21:40.661Z,98924.13
2023-04-27T09:24:13.174Z,98921.59
2023-04-27T09:26:43.076Z,98915.34
2023-04-27T09:29:10.833Z,98915.22
2023-04-27T09:31:38.421Z,98913.00
2023-04-27T09:34:06.397Z,98911.28
2023-04-27T09:36:34.968Z,98920.38
2023-04-27T09:39:05.407Z,98908.63
2023-04-27T09:41:33.437Z,98906.41
2023-04-27T09:44:02.061Z,98905.13
2023-04-27T09:46:29.978Z,98905.97
2023-04-27T09:48:58.508Z,98900.66
2023-04-27T09:51:27.843Z,98890.94
2023-04-27T09:54:00.933Z,98897.56
2023-04-27T09:57:08.870Z,98890.91
2023-04-27T10:00:14.710Z,98894.06
2023-04-27T10:03:24.503Z,98899.19
2023-04-27T10:06:39.162Z,98891.16
2023-04-27T10:09:07.735Z,98893.56
2023-04-27T10:11:44.578Z,98896.13
2023-04-27T10:14:18.846Z,98889.91
2023-04-27T10:16:50.127Z,98887.03
2023-04-27T10:19:18.150Z,98896.34
2023-04-27T10:21:57.092Z,98895.84
2023-04-27T10:24:41.755Z,98893.81
2023-04-27T10:27:13.585Z,98885.81
2023-04-27T10:29:47.309Z,98880.03
2023-04-27T10:32:25.513Z,98898.19
2023-04-27T10:35:07.662Z,98896.84
2023-04-27T10:37:43.680Z,98880.09
2023-04-27T10:40:14.796Z,98902.44
2023-04-27T10:42:42.484Z,98890.66
2023-04-27T10:45:12.674Z,98887.00
2023-04-27T10:47:45.683Z,98895.97
2023-04-27T10:50:14.388Z,98887.25
2023-04-27T10:52:46.661Z,98890.28
2023-04-27T10:55:18.694Z,98890.44
2023-04-27T10:57:57.051Z,98875.81
2023-04-27T11:00:29.795Z,98902.28
2023-04-27T11:03:20.779Z,98878.25
2023-04-27T11:06:00.530Z,98881.56
2023-04-27T11:08:28.275Z,98894.41
2023-04-27T11:10:57.830Z,98895.75
2023-04-27T11:13:28.201Z,98891.75
2023-04-27T11:15:58.380Z,98898.44
2023-04-27T11:18:30.998Z,98885.63
2023-04-27T11:21:16.001Z,98880.41
2023-04-27T11:23:43.923Z,98895.63
2023-04-27T11:26:22.517Z,98896.50
2023-04-27T11:29:10.027Z,98883.53
2023-04-27T11:31:48.927Z,98888.72
2023-04-27T11:34:22.836Z,98881.34
2023-04-27T11:39:39.123Z,98880.13
2023-04-27T11:42:22.307Z,98880.31
2023-04-27T11:45:08.287Z,98878.22
2023-04-27T11:47:36.111Z,98878.47
2023-04-27T11:50:10.583Z,98881.28
2023-04-27T11:52:40.363Z,98888.84
2023-04-27T11:55:16.136Z,98893.25
2023-04-27T11:57:43.961Z,98891.38
2023-04-27T12:00:14.536Z,98881.41
2023-04-27T12:02:44.281Z,98878.38
2023-04-27T12:05:13.137Z,98879.41
2023-04-27T12:07:41.558Z,98871.84
2023-04-27T12:10:09.614Z,98873.09
2023-04-27T12:12:36.993Z,98889.75
2023-04-27T12:15:04.975Z,98886.53
2023-04-27T12:17:33.007Z,98879.94
2023-04-27T12:20:00.843Z,98878.53
2023-04-27T12:22:28.897Z,98873.66
2023-04-27T12:24:56.891Z,98887.75
2023-04-27T12:27:24.485Z,98885.78
2023-04-27T12:29:54.196Z,98896.28
2023-04-27T12:32:21.732Z,98899.59
2023-04-27T12:34:49.378Z,98908.16
2023-04-27T12:37:16.959Z,98900.78
2023-04-27T12:39:44.882Z,98896.22
2023-04-27T12:42:12.380Z,98901.72
2023-04-27T12:44:40.132Z,98891.03
2023-04-27T12:47:07.601Z,98891.03
2023-04-27T12:49:36.212Z,98886.88
2023-04-27T12:52:03.882Z,98883.53
2023-04-27T12:54:31.460Z,98890.47
2023-04-27T12:57:02.553Z,98897.09
2023-04-27T12:59:30.196Z,98898.06
2023-04-27T13:01:57.975Z,98896.53
2023-04-27T13:04:26.044Z,98902.22
2023-04-27T13:06:53.753Z,98891.72
2023-04-27T13:09:21.558Z,98885.53
2023-04-27T13:11:49.134Z,98872.47
2023-04-27T13:14:17.112Z,98884.53
2023-04-27T13:16:44.836Z,98882.06
2023-04-27T13:19:12.532Z,98875.78
2023-04-27T13:21:40.490Z,98872.34
2023-04-27T13:24:08.124Z,98877.25
2023-04-27T13:26:35.636Z,98887.91
2023-04-27T13:29:04.596Z,98890.81
2023-04-27T13:31:33.395Z,98894.34
2023-04-27T13:34:01.321Z,98890.34
2023-04-27T13:36:28.845Z,98883.47
2023-04-27T13:38:56.967Z,98885.50
2023-04-27T13:41:24.588Z,98884.81
2023-04-27T13:43:52.096Z,98882.59
2023-04-27T13:46:19.632Z,98882.91
2023-04-27T13:48:47.162Z,98888.72
2023-04-27T13:51:14.877Z,98869.34
2023-04-27T13:53:42.345Z,98871.38
2023-04-27T13:56:10.009Z,98866.91
2023-04-27T13:58:37.646Z,98864.47
2023-04-27T14:01:05.546Z,98873.13
2023-04-27T14:03:33.996Z,98861.91
2023-04-27T14:06:01.926Z,98862.19
2023-04-27T14:08:29.510Z,98878.00
2023-04-27T14:10:57.654Z,98874.81
2023-04-27T14:13:25.809Z,98876.38
2023-04-27T14:15:53.200Z,98882.56
2023-04-27T14:18:20.799Z,98878.47
2023-04-27T14:20:48.480Z,98874.97
2023-04-27T14:23:22.641Z,98874.41
2023-04-27T14:25:50.399Z,98893.16
2023-04-27T14:28:18.800Z,98880.91
2023-04-27T14:30:47.990Z,98884.13
2023-04-27T14:33:18.191Z,98882.53
2023-04-27T14:35:45.776Z,98897.78
2023-04-27T14:38:13.413Z,98896.34
2023-04-27T14:40:41.378Z,98899.50
2023-04-27T14:43:08.960Z,98899.03
2023-04-27T14:45:44.118Z,98896.69
2023-04-27T14:48:18.606Z,98895.88
2023-04-27T14:50:46.263Z,98896.41
2023-04-27T14:53:13.758Z,98905.88
2023-04-27T14:55:43.343Z,98907.03
2023-04-27T14:58:11.424Z,98904.41
2023-04-27T15:00:40.151Z,98902.97
2023-04-27T15:03:07.813Z,98912.50
2023-04-27T15:05:35.537Z,98917.16
2023-04-27T15:08:03.177Z,98908.41
2023-04-27T15:10:30.819Z,98906.47
2023-04-27T15:12:58.319Z,98912.88
2023-04-27T15:15:26.011Z,98906.81
2023-04-27T15:17:53.689Z,98898.72
2023-04-27T15:20:21.368Z,98902.56
2023-04-27T15:22:48.906Z,98913.13
2023-04-27T15:25:16.370Z,98923.22
2023-04-27T15:27:43.865Z,98913.72
2023-04-27T15:30:13.680Z,98920.78
2023-04-27T15:32:41.677Z,98919.78
2023-04-27T15:35:09.767Z,98913.22
2023-04-27T15:37:37.443Z,98924.22
2023-04-27T15:40:09.155Z,98927.69
2023-04-27T15:42:36.686Z,98922.38
2023-04-27T15:45:04.664Z,98913.41
2023-04-27T15:47:32.251Z,98925.44
2023-04-27T15:49:59.741Z,98923.28
2023-04-27T15:52:27.293Z,98922.25
2023-04-27T15:54:55.398Z,98923.53
2023-04-27T15:57:23.026Z,98921.44
2023-04-27T15:59:50.775Z,98917.47
2023-04-27T16:02:18.924Z,98919.59
2023-04-27T16:04:46.687Z,98921.31
2023-04-27T16:07:14.196Z,98931.81
2023-04-27T16:09:41.937Z,98926.56
2023-04-27T16:12:09.608Z,98933.69
2023-04-27T16:14:38.491Z,98938.50
2023-04-27T16:17:06.787Z,98932.16
2023-04-27T16:19:34.318Z,98932.28
2023-04-27T16:22:04.087Z,98930.66
2023-04-27T16:24:31.770Z,98935.72
2023-04-27T16:26:59.286Z,98937.38
2023-04-27T16:29:26.851Z,98938.53
2023-04-27T16:31:54.413Z,98944.06
2023-04-27T16:34:22.272Z,98944.78
2023-04-27T16:36:49.991Z,98945.03
2023-04-27T16:39:19.357Z,98938.97
2023-04-27T16:41:47.949Z,98947.28
2023-04-27T16:44:16.345Z,98941.00
2023-04-27T16:46:43.944Z,98951.53
2023-04-27T16:49:11.852Z,98943.50
2023-04-27T16:51:39.499Z,98948.66
2023-04-27T16:54:07.237Z,98949.81
2023-04-27T16:56:36.304Z,98950.22
2023-04-27T16:59:05.223Z,98950.16
2023-04-27T17:01:33.104Z,98953.06
2023-04-27T17:04:03.772Z,98963.25
2023-04-27T17:06:31.490Z,98963.22
2023-04-27T17:08:59.214Z,98963.94
2023-04-27T17:11:27.020Z,98965.31
2023-04-27T17:13:54.606Z,98964.22
2023-04-27T17:16:22.319Z,98966.19
2023-04-27T17:18:49.884Z,98965.09
2023-04-27T17:21:17.527Z,98975.91
2023-04-27T17:23:48.929Z,98974.97
2023-04-27T17:26:20.257Z,98976.63
2023-04-27T17:28:49.224Z,98977.16
2023-04-27T17:31:17.713Z,98982.53
2023-04-27T17:33:45.892Z,98983.03
2023-04-27T17:36:14.918Z,98983.53
2023-04-27T17:38:42.667Z,98987.13
2023-04-27T17:41:10.244Z,98991.84
2023-04-27T17:43:38.104Z,98991.97
2023-04-27T17:46:12.333Z,98997.53
2023-04-27T17:48:40.311Z,98994.59
2023-04-27T17:51:08.781Z,99002.72
2023-04-27T17:53:36.611Z,98994.72
2023-04-27T17:56:05.296Z,99001.66
2023-04-27T17:58:32.842Z,99002.59
2023-04-27T18:01:00.524Z,99007.19
2023-04-27T18:03:28.158Z,99011.88
2023-04-27T18:05:55.880Z,99011.03
2023-04-27T18:08:23.381Z,99017.88
2023-04-27T18:10:51.027Z,99019.91
2023-04-27T18:13:18.640Z,99026.22
2023-04-27T18:15:46.475Z,99022.75
2023-04-27T18:18:16.904Z,99024.84
2023-04-27T18:20:45.001Z,99033.94
2023-04-27T18:23:12.484Z,99019.41
2023-04-27T18:25:39.993Z,99036.75
2023-04-27T18:28:07.625Z,99028.56
2023-04-27T18:30:35.796Z,99030.78
2023-04-27T18:33:03.985Z,99038.81
2023-04-27T18:35:31.612Z,99019.50
2023-04-27T18:37:59.153Z,99020.72
2023-04-27T18:40:27.038Z,99023.31
2023-04-27T18:42:54.650Z,99021.69
2023-04-27T18:45:22.281Z,99016.63
2023-04-27T18:47:49.769Z,99036.91
2023-04-27T18:50:17.516Z,99034.44
2023-04-27T18:52:46.008Z,99033.41
2023-04-27T18:55:17.768Z,99033.72
2023-04-27T18:57:45.945Z,99042.19
2023-04-27T19:00:14.155Z,99050.53
2023-04-27T19:02:41.761Z,99048.72
2023-04-27T19:05:13.445Z,99043.66
2023-04-27T19:07:41.647Z,99043.16
2023-04-27T19:10:10.186Z,99045.75
2023-04-27T19:12:38.343Z,99046.84
2023-04-27T19:15:06.468Z,99056.59
2023-04-27T19:17:34.891Z,99057.16
2023-04-27T19:20:02.533Z,99049.22
2023-04-27T19:22:34.273Z,99063.16
2023-04-27T19:25:01.976Z,99062.94
2023-04-27T19:27:29.752Z,99058.03
2023-04-27T19:29:58.699Z,99055.44
2023-04-27T19:32:27.813Z,99056.03
2023-04-27T19:34:57.316Z,99069.97
2023-04-27T19:37:27.305Z,99058.38
2023-04-27T19:39:55.164Z,99052.81
2023-04-27T19:42:23.539Z,99062.00
2023-04-27T19:44:51.162Z,99057.41
2023-04-27T19:47:18.638Z,99056.34
2023-04-27T19:49:46.186Z,99062.78
2023-04-27T19:52:13.887Z,99063.06
2023-04-27T19:54:41.430Z,99061.84
2023-04-27T19:57:08.956Z,99059.16
2023-04-27T19:59:36.654Z,99048.25
2023-04-27T20:02:04.676Z,99048.00
2023-04-27T20:04:33.189Z,99045.56
2023-04-27T20:07:02.170Z,99045.00
2023-04-27T20:09:30.871Z,99049.81
2023-04-27T20:11:58.575Z,99049.28
2023-04-27T20:14:29.094Z,99045.50
2023-04-27T20:16:56.993Z,99053.28
2023-04-27T20:19:25.308Z,99042.06
2023-04-27T20:21:52.967Z,99056.41
2023-04-27T20:24:20.701Z,99054.78
2023-04-27T20:26:48.440Z,99056.88
2023-04-27T20:29:16.525Z,99063.28
2023-04-27T20:31:44.978Z,99055.50
2023-04-27T20:34:12.950Z,99068.91
2023-04-27T20:36:40.669Z,99062.38
2023-04-27T20:39:09.179Z,99060.88
2023-04-27T20:41:38.524Z,99062.38
2023-04-27T20:44:06.147Z,99068.81
2023-04-27T20:46:33.818Z,99071.69
2023-04-27T20:49:01.556Z,99071.94
2023-04-27T20:51:29.422Z,99064.72
2023-04-27T20:53:57.186Z,99067.06
2023-04-27T20:56:26.270Z,99070.22
2023-04-27T20:58:54.270Z,99063.34
2023-04-27T21:01:21.854Z,99064.19
2023-04-27T21:03:49.483Z,99065.16
2023-04-27T21:06:17.172Z,99064.59
2023-04-27T21:08:44.784Z,99070.84
2023-04-27T21:11:12.242Z,99066.78
2023-04-27T21:13:39.742Z,99078.09
2023-04-27T21:16:07.257Z,99078.94
2023-04-27T21:18:35.110Z,99075.66
2023-04-27T21:21:02.994Z,99084.38
2023-04-27T21:23:30.551Z,99083.03
2023-04-27T21:25:59.232Z,99086.44
2023-04-27T21:28:26.883Z,99092.69
2023-04-27T21:30:54.430Z,99091.72
2023-04-27T21:33:21.908Z,99084.09
2023-04-27T21:35:49.388Z,99081.66
2023-04-27T21:38:16.838Z,99082.47
2023-04-27T21:40:44.400Z,99081.78
2023-04-27T21:43:11.988Z,99083.00
2023-04-27T21:45:39.733Z,99092.56
2023-04-27T21:48:07.305Z,99100.31
2023-04-27T21:50:34.893Z,99097.88
2023-04-27T21:53:02.449Z,99098.94
2023-04-27T21:55:30.087Z,99100.59
2023-04-27T21:57:57.536Z,99106.88
2023-04-27T22:00:25.627Z,99109.56
2023-04-27T22:02:53.271Z,99104.53
2023-04-27T22:05:21.290Z,99110.81
2023-04-27T22:07:48.873Z,99110.38
2023-04-27T22:10:16.352Z,99113.50
2023-04-27T22:12:43.901Z,99120.31
2023-04-27T22:15:11.597Z,99109.41
2023-04-27T22:17:39.785Z,99110.63
2023-04-27T22:20:14.416Z,99110.88
2023-04-27T22:22:42.191Z,99106.91
2023-04-27T22:25:11.660Z,99105.28
2023-04-27T22:27:45.155Z,99105.78
2023-04-27T22:30:14.394Z,99102.50
2023-04-27T22:32:42.390Z,99112.88
2023-04-27T22:35:24.601Z,99113.94
2023-04-27T22:37:56.312Z,99119.06
2023-04-27T22:40:24.535Z,99127.25
2023-04-27T22:42:53.170Z,99124.63
2023-04-27T22:45:22.109Z,99122.56
2023-04-27T22:47:49.935Z,99130.41
2023-04-27T22:50:17.857Z,99132.41
2023-04-27T22:52:45.714Z,99129.25
2023-04-27T22:55:13.437Z,99125.72
2023-04-27T22:57:41.902Z,99130.63
2023-04-27T23:00:11.661Z,99135.94
2023-04-27T23:02:40.898Z,99128.56
2023-04-27T23:05:10.883Z,99132.47
2023-04-27T23:07:43.507Z,99131.38
2023-04-27T23:10:11.366Z,99125.03
2023-04-27T23:12:39.011Z,99130.72
2023-04-27T23:15:07.464Z,99123.72
2023-04-27T23:17:35.040Z,99131.03
2023-04-27T23:20:24.033Z,99125.41
2023-04-27T23:22:54.731Z,99135.09
2023-04-27T23:25:22.335Z,99124.59
2023-04-27T23:27:51.899Z,99124.97
2023-04-27T23:30:21.978Z,99122.38
2023-04-27T23:32:49.527Z,99128.50
2023-04-27T23:35:17.165Z,99124.66
2023-04-27T23:37:44.972Z,99122.22
2023-04-27T23:40:12.862Z,99135.38
2023-04-27T23:42:40.364Z,99130.88
2023-04-27T23:45:08.523Z,99136.78
2023-04-27T23:47:36.094Z,99131.59
2023-04-27T23:50:04.028Z,99140.03
2023-04-27T23:52:31.540Z,99137.81
2023-04-27T23:54:59.060Z,99133.97
2023-04-27T23:57:26.555Z,99130.69
2023-04-27T23:59:54.014Z,99142.66
